Time;durP1;ratioP1;P1;durP2;ratioP2;P2;SDS_P1;SDS_P2;PMS_P1;PMS_P2;Temp;Humidity;BMP_temperature;BMP_pressure;BME280_temperature;BME280_humidity;BME280_pressure;Samples;Min_cycle;Max_cycle;Signal;HPM_P1;HPM_P2
2023/03/17 00:02:12;;;;;;;2.85;1.58;;;;;;;;;;5091544;28;20510;-59
2023/03/17 00:04:38;;;;;;;3.28;1.27;;;;;;;;;;5091108;28;20108;-60
2023/03/17 00:07:05;;;;;;;2.15;1.40;;;;;;;;;;5091164;28;20500;-59
2023/03/17 00:09:31;;;;;;;2.22;1.30;;;;;;;;;;5090650;28;20024;-59
2023/03/17 00:11:58;;;;;;;3.22;1.60;;;;;;;;;;5090820;28;20056;-59
2023/03/17 00:14:24;;;;;;;2.28;1.35;;;;;;;;;;5090933;28;20031;-59
2023/03/17 00:16:50;;;;;;;1.90;1.27;;;;;;;;;;5091328;28;20036;-59
2023/03/17 00:19:19;;;;;;;2.15;1.30;;;;;;;;;;5090703;28;20024;-59
2023/03/17 00:21:45;;;;;;;2.97;1.40;;;;;;;;;;5094753;28;20036;-59
2023/03/17 00:24:12;;;;;;;2.78;1.58;;;;;;;;;;5091155;28;20029;-59
2023/03/17 00:26:39;;;;;;;3.33;1.55;;;;;;;;;;5090823;28;20593;-59
2023/03/17 00:29:05;;;;;;;1.85;1.13;;;;;;;;;;5091301;28;20024;-59
2023/03/17 00:31:33;;;;;;;1.65;1.00;;;;;;;;;;5095113;28;20043;-59
2023/03/17 00:33:59;;;;;;;1.52;0.98;;;;;;;;;;5098135;28;20028;-59
2023/03/17 00:36:27;;;;;;;2.13;1.40;;;;;;;;;;5090788;28;20035;-59
2023/03/17 00:38:53;;;;;;;2.53;1.05;;;;;;;;;;5090715;28;20086;-60
2023/03/17 00:41:19;;;;;;;2.78;1.48;;;;;;;;;;5090705;28;20017;-59
2023/03/17 00:43:45;;;;;;;1.20;0.85;;;;;;;;;;5091030;28;20062;-59
2023/03/17 00:46:34;;;;;;;1.98;1.15;;;;;;;;;;5091234;28;20047;-59
2023/03/17 00:49:01;;;;;;;2.55;1.17;;;;;;;;;;5090377;28;20034;-59
2023/03/17 00:51:27;;;;;;;1.95;1.20;;;;;;;;;;5090225;28;20392;-59
2023/03/17 00:53:52;;;;;;;2.20;1.00;;;;;;;;;;5090730;28;20032;-59
2023/03/17 00:56:20;;;;;;;2.20;1.30;;;;;;;;;;5090585;28;20016;-59
2023/03/17 00:58:46;;;;;;;2.40;1.23;;;;;;;;;;5090497;28;20103;-59
2023/03/17 01:01:12;;;;;;;1.67;1.10;;;;;;;;;;5090677;28;20111;-59
2023/03/17 01:03:38;;;;;;;2.00;1.20;;;;;;;;;;5090391;28;20108;-59
2023/03/17 01:06:06;;;;;;;2.10;1.25;;;;;;;;;;5090838;28;20024;-59
2023/03/17 01:08:32;;;;;;;2.17;1.02;;;;;;;;;;5090256;28;20590;-59
2023/03/17 01:10:58;;;;;;;3.28;1.35;;;;;;;;;;5090253;28;20040;-59
2023/03/17 01:13:24;;;;;;;2.45;1.10;;;;;;;;;;5090134;28;20036;-59
2023/03/17 01:15:51;;;;;;;1.65;1.02;;;;;;;;;;5090284;28;20101;-59
2023/03/17 01:18:19;;;;;;;2.00;1.33;;;;;;;;;;5090384;28;20111;-60
2023/03/17 01:20:45;;;;;;;2.30;1.10;;;;;;;;;;5094314;28;20021;-60
2023/03/17 01:23:12;;;;;;;1.95;1.10;;;;;;;;;;5094331;28;20028;-59
2023/03/17 01:25:40;;;;;;;2.08;1.08;;;;;;;;;;5093762;28;20099;-59
2023/03/17 01:28:06;;;;;;;3.28;1.42;;;;;;;;;;5094105;28;20032;-59
2023/03/17 01:30:37;;;;;;;1.77;1.10;;;;;;;;;;5093450;28;20110;-59
2023/03/17 01:33:04;;;;;;;2.40;1.20;;;;;;;;;;5093897;28;20059;-60
2023/03/17 01:35:30;;;;;;;2.65;1.23;;;;;;;;;;5097321;28;20028;-59
2023/03/17 01:37:56;;;;;;;2.28;1.00;;;;;;;;;;5093608;28;20020;-59
2023/03/17 01:40:24;;;;;;;1.80;1.10;;;;;;;;;;5093549;28;20344;-59
2023/03/17 01:42:53;;;;;;;2.22;1.30;;;;;;;;;;5093759;28;20437;-58
2023/03/17 01:45:38;;;;;;;1.98;1.17;;;;;;;;;;5093463;28;20032;-59
2023/03/17 01:48:04;;;;;;;1.90;1.30;;;;;;;;;;5093540;28;20028;-59
2023/03/17 01:50:30;;;;;;;2.83;1.10;;;;;;;;;;5093453;28;20032;-58
2023/03/17 01:52:56;;;;;;;2.22;1.30;;;;;;;;;;5093259;28;20084;-59
2023/03/17 01:55:22;;;;;;;3.67;1.40;;;;;;;;;;5093323;28;20460;-59
2023/03/17 01:57:53;;;;;;;2.35;1.10;;;;;;;;;;5093274;28;20036;-58
2023/03/17 02:00:20;;;;;;;2.55;1.20;;;;;;;;;;5093133;28;20562;-59
2023/03/17 02:02:48;;;;;;;1.90;1.25;;;;;;;;;;5093626;28;20032;-59
2023/03/17 02:05:16;;;;;;;1.98;1.08;;;;;;;;;;5093133;28;20047;-59
2023/03/17 02:07:43;;;;;;;2.13;1.20;;;;;;;;;;5093698;28;20024;-59
2023/03/17 02:10:11;;;;;;;2.72;1.30;;;;;;;;;;5093121;28;20524;-59
2023/03/17 02:12:38;;;;;;;1.70;1.20;;;;;;;;;;5092847;28;20040;-59
2023/03/17 02:15:04;;;;;;;2.55;1.33;;;;;;;;;;5093172;28;20510;-59
2023/03/17 02:17:30;;;;;;;2.67;1.15;;;;;;;;;;5092982;28;20028;-59
2023/03/17 02:20:10;;;;;;;2.20;1.48;;;;;;;;;;5093184;28;20020;-58
2023/03/17 02:22:37;;;;;;;3.25;1.08;;;;;;;;;;5092661;28;20056;-59
2023/03/17 02:25:03;;;;;;;1.58;1.00;;;;;;;;;;5092785;28;20024;-59
2023/03/17 02:27:33;;;;;;;1.83;1.10;;;;;;;;;;5092784;28;20435;-60
2023/03/17 02:29:59;;;;;;;1.60;0.80;;;;;;;;;;5092763;28;20038;-59
2023/03/17 02:32:26;;;;;;;2.88;1.60;;;;;;;;;;5092612;28;20031;-58
2023/03/17 02:34:52;;;;;;;1.75;1.20;;;;;;;;;;5092823;28;20028;-59
2023/03/17 02:37:18;;;;;;;3.13;1.40;;;;;;;;;;5092965;28;20036;-58
2023/03/17 02:39:45;;;;;;;3.45;1.40;;;;;;;;;;5108466;28;20106;-58
2023/03/17 02:42:11;;;;;;;2.22;1.08;;;;;;;;;;5113422;28;20027;-59
2023/03/17 02:44:37;;;;;;;2.65;1.10;;;;;;;;;;5112482;28;20388;-58
2023/03/17 02:47:03;;;;;;;2.53;1.50;;;;;;;;;;5095158;28;20496;-58
2023/03/17 02:49:30;;;;;;;1.83;1.23;;;;;;;;;;5093942;28;20027;-58
2023/03/17 02:51:56;;;;;;;2.83;1.58;;;;;;;;;;5103603;28;20115;-58
2023/03/17 02:54:22;;;;;;;2.10;1.33;;;;;;;;;;5092150;28;20158;-58
2023/03/17 02:56:48;;;;;;;1.90;1.10;;;;;;;;;;5092159;28;20082;-58
2023/03/17 02:59:15;;;;;;;1.35;0.90;;;;;;;;;;5092715;28;20550;-58
2023/03/17 03:01:41;;;;;;;2.00;1.05;;;;;;;;;;5092807;28;20024;-58
2023/03/17 03:04:07;;;;;;;1.60;1.20;;;;;;;;;;5092244;28;20028;-58
2023/03/17 03:06:33;;;;;;;2.83;1.27;;;;;;;;;;5091975;28;20028;-58
2023/03/17 03:08:59;;;;;;;2.03;1.35;;;;;;;;;;5092107;28;20032;-58
2023/03/17 03:11:26;;;;;;;1.75;1.13;;;;;;;;;;5091855;28;20032;-58
2023/03/17 03:13:52;;;;;;;2.20;1.17;;;;;;;;;;5092424;28;20024;-59
2023/03/17 03:16:18;;;;;;;2.38;1.40;;;;;;;;;;5091841;28;20461;-57
2023/03/17 03:18:44;;;;;;;2.13;1.17;;;;;;;;;;5092234;28;20028;-59
2023/03/17 03:21:10;;;;;;;1.60;0.98;;;;;;;;;;5092150;28;20056;-59
2023/03/17 03:23:36;;;;;;;2.67;1.20;;;;;;;;;;5091576;28;20059;-58
2023/03/17 03:26:02;;;;;;;1.98;0.95;;;;;;;;;;5091922;28;20024;-58
2023/03/17 03:28:28;;;;;;;2.22;1.05;;;;;;;;;;5091619;28;20028;-58
2023/03/17 03:30:54;;;;;;;3.40;1.20;;;;;;;;;;5091439;28;20060;-59
2023/03/17 03:33:20;;;;;;;2.90;1.40;;;;;;;;;;5107644;28;20108;-58
2023/03/17 03:35:46;;;;;;;2.05;1.15;;;;;;;;;;5111360;28;20103;-60
2023/03/17 03:38:13;;;;;;;2.42;1.30;;;;;;;;;;5111915;28;20051;-59
2023/03/17 03:40:39;;;;;;;1.80;1.15;;;;;;;;;;5111233;28;20032;-59
2023/03/17 03:43:05;;;;;;;2.65;1.17;;;;;;;;;;5111578;28;20523;-58
2023/03/17 03:45:31;;;;;;;2.33;1.30;;;;;;;;;;5111219;28;20546;-58
2023/03/17 03:47:57;;;;;;;1.92;1.20;;;;;;;;;;5111089;28;20023;-58
2023/03/17 03:50:24;;;;;;;1.98;1.27;;;;;;;;;;5111091;28;20038;-59
2023/03/17 03:52:50;;;;;;;2.05;1.25;;;;;;;;;;5111809;28;20032;-58
2023/03/17 03:55:16;;;;;;;3.80;1.40;;;;;;;;;;5111071;28;20103;-58
2023/03/17 03:57:42;;;;;;;2.05;1.25;;;;;;;;;;5111439;28;20110;-58
2023/03/17 04:00:08;;;;;;;1.75;1.02;;;;;;;;;;5110721;28;20028;-58
2023/03/17 04:02:34;;;;;;;2.13;1.30;;;;;;;;;;5095030;28;20515;-57
2023/03/17 04:05:00;;;;;;;2.00;1.30;;;;;;;;;;5090801;28;20108;-60
2023/03/17 04:07:26;;;;;;;1.83;1.20;;;;;;;;;;5090863;28;20081;-58
2023/03/17 04:09:52;;;;;;;1.42;1.02;;;;;;;;;;5091116;28;20484;-59
2023/03/17 04:12:18;;;;;;;2.47;1.38;;;;;;;;;;5090717;28;20040;-57
2023/03/17 04:14:44;;;;;;;1.52;1.10;;;;;;;;;;5097906;28;20024;-59
2023/03/17 04:17:11;;;;;;;2.00;1.10;;;;;;;;;;5111349;28;20028;-58
2023/03/17 04:19:37;;;;;;;1.70;0.93;;;;;;;;;;5110593;28;20031;-58
2023/03/17 04:22:04;;;;;;;1.58;1.17;;;;;;;;;;5111453;28;20031;-58
2023/03/17 04:24:30;;;;;;;1.40;0.90;;;;;;;;;;5109394;28;20023;-58
2023/03/17 04:26:56;;;;;;;3.97;1.52;;;;;;;;;;5090690;28;20036;-58
2023/03/17 04:29:22;;;;;;;3.15;1.50;;;;;;;;;;5090895;28;20024;-57
2023/03/17 04:31:48;;;;;;;2.20;1.40;;;;;;;;;;5093816;28;20063;-58
2023/03/17 04:34:16;;;;;;;1.75;1.10;;;;;;;;;;5110905;28;20053;-58
2023/03/17 04:36:42;;;;;;;2.72;1.23;;;;;;;;;;5111409;28;20035;-59
2023/03/17 04:39:08;;;;;;;2.80;1.00;;;;;;;;;;5109462;28;20107;-59
2023/03/17 04:41:34;;;;;;;1.85;1.30;;;;;;;;;;5093125;28;20032;-57
2023/03/17 04:44:00;;;;;;;1.35;1.00;;;;;;;;;;5090636;28;20456;-58
2023/03/17 04:46:26;;;;;;;2.10;1.15;;;;;;;;;;5090600;28;20032;-58
2023/03/17 04:48:52;;;;;;;2.42;1.23;;;;;;;;;;5090364;28;20314;-58
2023/03/17 04:51:19;;;;;;;1.90;1.20;;;;;;;;;;5090593;28;20024;-58
2023/03/17 04:53:45;;;;;;;2.22;1.20;;;;;;;;;;5091779;28;20511;-58
2023/03/17 04:56:11;;;;;;;1.58;1.08;;;;;;;;;;5095082;28;20016;-58
2023/03/17 04:58:37;;;;;;;2.47;1.40;;;;;;;;;;5094070;28;20024;-58
2023/03/17 05:01:04;;;;;;;1.52;1.00;;;;;;;;;;5094590;28;20044;-58
2023/03/17 05:03:30;;;;;;;2.05;1.35;;;;;;;;;;5094022;28;20032;-59
2023/03/17 05:05:59;;;;;;;3.00;1.42;;;;;;;;;;5094391;28;20016;-57
2023/03/17 05:08:27;;;;;;;2.72;1.20;;;;;;;;;;5094441;28;20024;-58
2023/03/17 05:10:53;;;;;;;2.50;1.25;;;;;;;;;;5093651;28;20519;-59
2023/03/17 05:13:19;;;;;;;2.70;1.05;;;;;;;;;;5093140;28;20554;-58
2023/03/17 05:15:49;;;;;;;1.90;0.90;;;;;;;;;;5094057;28;20484;-59
2023/03/17 05:18:15;;;;;;;1.95;1.20;;;;;;;;;;5094549;28;20081;-58
2023/03/17 05:20:41;;;;;;;2.30;1.35;;;;;;;;;;5094096;28;20020;-59
2023/03/17 05:23:07;;;;;;;1.90;1.05;;;;;;;;;;5094236;28;20099;-58
2023/03/17 05:25:34;;;;;;;1.35;1.00;;;;;;;;;;5093845;28;20056;-57
2023/03/17 05:28:00;;;;;;;2.38;1.20;;;;;;;;;;5094076;28;20021;-58
2023/03/17 05:30:26;;;;;;;3.58;1.10;;;;;;;;;;5093717;28;20576;-58
2023/03/17 05:32:53;;;;;;;2.45;1.17;;;;;;;;;;5093616;28;20101;-58
2023/03/17 05:35:19;;;;;;;2.33;1.25;;;;;;;;;;5093833;28;20025;-58
2023/03/17 05:37:45;;;;;;;2.75;1.20;;;;;;;;;;5093895;28;20077;-58
2023/03/17 05:40:12;;;;;;;1.73;1.30;;;;;;;;;;5093980;28;20032;-58
2023/03/17 05:42:38;;;;;;;2.55;1.30;;;;;;;;;;5109219;28;20394;-58
2023/03/17 05:45:06;;;;;;;1.88;1.10;;;;;;;;;;5110236;28;20024;-58
2023/03/17 05:47:32;;;;;;;2.47;1.30;;;;;;;;;;5105659;28;20101;-58
2023/03/17 05:49:58;;;;;;;2.38;1.30;;;;;;;;;;5093609;28;20040;-58
2023/03/17 05:52:25;;;;;;;2.58;1.40;;;;;;;;;;5093252;28;20040;-58
2023/03/17 05:54:52;;;;;;;1.85;1.20;;;;;;;;;;5093300;28;20035;-59
2023/03/17 05:57:18;;;;;;;2.95;1.50;;;;;;;;;;5093579;28;20036;-58
2023/03/17 05:59:44;;;;;;;1.70;0.90;;;;;;;;;;5093416;28;20099;-59
2023/03/17 06:02:10;;;;;;;1.88;1.15;;;;;;;;;;5093415;28;20575;-59
2023/03/17 06:04:37;;;;;;;1.65;0.98;;;;;;;;;;5092503;28;20480;-59
2023/03/17 06:07:03;;;;;;;1.88;1.30;;;;;;;;;;5093213;28;20501;-59
2023/03/17 06:09:30;;;;;;;1.75;1.02;;;;;;;;;;5092773;28;20069;-56
2023/03/17 06:11:56;;;;;;;2.30;1.33;;;;;;;;;;5093028;28;20044;-58
2023/03/17 06:14:22;;;;;;;1.95;1.30;;;;;;;;;;5093044;28;20096;-57
2023/03/17 06:16:48;;;;;;;2.67;1.27;;;;;;;;;;5093180;28;20773;-59
2023/03/17 06:19:15;;;;;;;3.17;1.40;;;;;;;;;;5092838;28;20016;-55
2023/03/17 06:21:41;;;;;;;2.30;1.25;;;;;;;;;;5092591;28;20020;-58
2023/03/17 06:24:08;;;;;;;2.03;1.10;;;;;;;;;;5099425;28;20031;-55
2023/03/17 06:26:34;;;;;;;2.00;1.00;;;;;;;;;;5099539;28;20068;-57
2023/03/17 06:29:00;;;;;;;3.10;1.17;;;;;;;;;;5113198;28;20543;-56
2023/03/17 06:31:26;;;;;;;1.52;1.02;;;;;;;;;;5112487;28;20495;-57
2023/03/17 06:33:52;;;;;;;2.50;1.48;;;;;;;;;;5093190;28;20047;-59
2023/03/17 06:36:18;;;;;;;2.50;1.60;;;;;;;;;;5093104;28;20117;-58
2023/03/17 06:38:44;;;;;;;2.50;1.50;;;;;;;;;;5092426;28;20025;-59
2023/03/17 06:41:11;;;;;;;1.80;1.30;;;;;;;;;;5092523;28;20074;-58
2023/03/17 06:43:37;;;;;;;2.53;1.30;;;;;;;;;;5110087;28;20130;-57
2023/03/17 06:46:03;;;;;;;2.33;1.52;;;;;;;;;;5112952;28;20512;-59
2023/03/17 06:48:29;;;;;;;2.63;1.33;;;;;;;;;;5096048;28;20068;-58
2023/03/17 06:50:55;;;;;;;5.13;1.63;;;;;;;;;;5091565;28;20155;-57
2023/03/17 06:53:21;;;;;;;3.92;1.73;;;;;;;;;;5092298;28;20039;-55
2023/03/17 06:55:47;;;;;;;5.75;1.27;;;;;;;;;;5092089;28;20081;-58
2023/03/17 06:58:14;;;;;;;6.60;1.48;;;;;;;;;;5092325;28;20032;-57
2023/03/17 07:00:40;;;;;;;4.10;1.25;;;;;;;;;;5091470;28;20628;-54
2023/03/17 07:03:08;;;;;;;10.35;1.95;;;;;;;;;;5095857;28;20114;-57
2023/03/17 07:05:34;;;;;;;4.10;1.80;;;;;;;;;;5091852;28;20063;-58
2023/03/17 07:08:00;;;;;;;6.90;2.70;;;;;;;;;;5091988;28;20051;-57
2023/03/17 07:10:26;;;;;;;3.78;2.53;;;;;;;;;;5092058;28;20059;-57
2023/03/17 07:12:52;;;;;;;4.13;3.00;;;;;;;;;;5091539;28;20028;-57
2023/03/17 07:15:19;;;;;;;5.32;3.38;;;;;;;;;;5092426;28;20084;-55
2023/03/17 07:17:48;;;;;;;4.15;3.38;;;;;;;;;;5090236;28;20372;-59
2023/03/17 07:20:14;;;;;;;8.48;3.85;;;;;;;;;;5092072;28;20020;-53
2023/03/17 07:22:40;;;;;;;4.20;2.80;;;;;;;;;;5091776;28;20031;-51
2023/03/17 07:25:07;;;;;;;8.98;3.80;;;;;;;;;;5092945;28;20031;-51
2023/03/17 07:27:33;;;;;;;4.90;2.88;;;;;;;;;;5091110;28;20032;-56
2023/03/17 07:30:03;;;;;;;5.68;3.33;;;;;;;;;;5091914;28;20027;-56
2023/03/17 07:32:29;;;;;;;5.65;3.50;;;;;;;;;;5091142;28;20139;-52
2023/03/17 07:34:55;;;;;;;5.05;3.10;;;;;;;;;;5091342;28;20043;-56
2023/03/17 07:37:22;;;;;;;11.02;3.13;;;;;;;;;;5088661;28;20035;-54
2023/03/17 07:39:48;;;;;;;5.68;2.90;;;;;;;;;;5091761;28;20028;-58
2023/03/17 07:42:15;;;;;;;10.55;3.47;;;;;;;;;;5105598;28;20122;-52
2023/03/17 07:44:41;;;;;;;7.32;3.70;;;;;;;;;;5102128;28;20103;-56
2023/03/17 07:47:08;;;;;;;3.63;2.80;;;;;;;;;;5091442;28;20058;-56
2023/03/17 07:49:34;;;;;;;5.07;3.13;;;;;;;;;;5089943;28;20081;-53
2023/03/17 07:52:00;;;;;;;4.38;3.00;;;;;;;;;;5089781;28;20516;-56
2023/03/17 07:54:27;;;;;;;5.95;2.83;;;;;;;;;;5089973;28;20082;-55
2023/03/17 07:56:54;;;;;;;5.80;2.95;;;;;;;;;;5087784;28;20493;-51
2023/03/17 07:59:20;;;;;;;4.20;2.47;;;;;;;;;;5091630;28;20050;-53
2023/03/17 08:01:46;;;;;;;7.95;2.90;;;;;;;;;;5090118;28;20027;-57
2023/03/17 08:04:13;;;;;;;3.88;2.65;;;;;;;;;;5102180;28;20030;-55
2023/03/17 08:06:40;;;;;;;3.88;2.45;;;;;;;;;;5089259;28;20076;-50
2023/03/17 08:09:07;;;;;;;8.73;2.40;;;;;;;;;;5090376;28;20469;-51
2023/03/17 08:11:34;;;;;;;6.15;2.88;;;;;;;;;;5090720;28;20036;-49
2023/03/17 08:14:01;;;;;;;7.95;2.67;;;;;;;;;;5091154;28;20020;-51
2023/03/17 08:16:27;;;;;;;4.85;2.60;;;;;;;;;;5096185;28;20036;-55
2023/03/17 08:18:54;;;;;;;10.75;2.53;;;;;;;;;;5095040;28;20023;-54
2023/03/17 08:21:20;;;;;;;5.43;2.40;;;;;;;;;;5091266;28;20041;-57
2023/03/17 08:23:47;;;;;;;4.45;1.95;;;;;;;;;;5090851;28;20020;-51
2023/03/17 08:26:13;;;;;;;4.78;2.70;;;;;;;;;;5091118;28;20082;-51
2023/03/17 08:28:39;;;;;;;4.45;2.63;;;;;;;;;;5093420;28;20107;-54
2023/03/17 08:31:11;;;;;;;4.70;2.53;;;;;;;;;;5106094;28;20034;-51
2023/03/17 08:33:37;;;;;;;6.80;2.58;;;;;;;;;;5094858;28;20028;-54
2023/03/17 08:36:05;;;;;;;7.38;2.75;;;;;;;;;;5094987;28;20357;-51
2023/03/17 08:38:31;;;;;;;4.32;1.98;;;;;;;;;;5105536;28;20384;-53
2023/03/17 08:40:59;;;;;;;4.10;2.58;;;;;;;;;;5115517;28;20129;-49
2023/03/17 08:43:26;;;;;;;5.40;1.95;;;;;;;;;;5115472;28;20034;-56
2023/03/17 08:45:53;;;;;;;3.60;2.05;;;;;;;;;;5115458;28;20038;-52
2023/03/17 08:48:19;;;;;;;3.38;1.67;;;;;;;;;;5115460;28;20031;-53
2023/03/17 08:50:46;;;;;;;5.22;1.95;;;;;;;;;;5097440;28;20107;-57
2023/03/17 08:53:13;;;;;;;3.35;2.25;;;;;;;;;;5094748;28;20434;-58
2023/03/17 08:55:38;;;;;;;4.10;1.65;;;;;;;;;;5094615;28;20035;-55
2023/03/17 08:58:04;;;;;;;6.40;2.42;;;;;;;;;;5094784;28;20383;-58
2023/03/17 09:00:30;;;;;;;3.70;1.85;;;;;;;;;;5106029;28;20028;-56
2023/03/17 09:02:57;;;;;;;3.70;2.05;;;;;;;;;;5115465;28;20034;-59
2023/03/17 09:05:23;;;;;;;5.05;1.90;;;;;;;;;;5115584;28;20062;-56
2023/03/17 09:07:49;;;;;;;3.55;2.00;;;;;;;;;;5100888;28;20040;-59
2023/03/17 09:10:19;;;;;;;4.65;1.65;;;;;;;;;;5094499;28;20035;-55
2023/03/17 09:12:46;;;;;;;4.20;1.70;;;;;;;;;;5094182;28;20068;-50
2023/03/17 09:15:12;;;;;;;4.35;2.28;;;;;;;;;;5094399;28;20028;-60
2023/03/17 09:17:38;;;;;;;4.03;1.75;;;;;;;;;;5093975;28;20027;-60
2023/03/17 09:20:05;;;;;;;3.10;1.90;;;;;;;;;;5094123;28;20032;-59
2023/03/17 09:22:31;;;;;;;4.65;2.00;;;;;;;;;;5095166;28;20020;-59
2023/03/17 09:24:57;;;;;;;2.80;1.63;;;;;;;;;;5104792;28;20039;-51
2023/03/17 09:27:23;;;;;;;2.58;1.60;;;;;;;;;;5094369;28;20020;-50
2023/03/17 09:29:49;;;;;;;3.38;1.77;;;;;;;;;;5094245;28;20024;-51
2023/03/17 09:32:15;;;;;;;4.57;1.77;;;;;;;;;;5094006;28;20032;-52
2023/03/17 09:34:41;;;;;;;3.15;1.98;;;;;;;;;;5096920;28;20392;-53
2023/03/17 09:37:08;;;;;;;3.97;1.67;;;;;;;;;;5098421;27;20063;-53
2023/03/17 09:39:35;;;;;;;3.60;2.00;;;;;;;;;;5092981;28;20039;-54
2023/03/17 09:42:01;;;;;;;4.03;2.00;;;;;;;;;;5093802;28;20484;-54
2023/03/17 09:44:34;;;;;;;5.00;2.10;;;;;;;;;;5093793;28;20035;-54
2023/03/17 09:47:17;;;;;;;3.78;1.70;;;;;;;;;;5107925;28;20065;-51
2023/03/17 09:49:43;;;;;;;4.88;1.70;;;;;;;;;;5114048;28;20357;-59
2023/03/17 09:52:17;;;;;;;5.32;1.85;;;;;;;;;;5114129;28;20425;-53
2023/03/17 09:54:45;;;;;;;3.08;1.80;;;;;;;;;;5113835;28;20047;-54
2023/03/17 09:57:15;;;;;;;4.18;2.10;;;;;;;;;;5097708;28;20040;-54
2023/03/17 09:59:48;;;;;;;3.88;1.67;;;;;;;;;;5093362;28;20039;-54
2023/03/17 10:02:26;;;;;;;3.58;1.80;;;;;;;;;;5092428;28;20028;-55
2023/03/17 10:04:52;;;;;;;5.40;2.03;;;;;;;;;;5093559;28;20034;-55
2023/03/17 10:07:38;;;;;;;3.70;1.80;;;;;;;;;;5093567;28;20032;-51
2023/03/17 10:10:13;;;;;;;3.53;2.00;;;;;;;;;;5093573;28;20027;-54
2023/03/17 10:12:46;;;;;;;3.70;1.75;;;;;;;;;;5097191;28;20377;-54
2023/03/17 10:15:15;;;;;;;3.83;1.73;;;;;;;;;;5108972;28;20024;-54
2023/03/17 10:17:41;;;;;;;2.95;1.73;;;;;;;;;;5092924;28;20111;-55
2023/03/17 10:20:15;;;;;;;4.30;1.70;;;;;;;;;;5092056;28;20020;-52
2023/03/17 10:22:48;;;;;;;5.68;1.98;;;;;;;;;;5093008;28;20059;-54
2023/03/17 10:25:19;;;;;;;3.22;1.90;;;;;;;;;;5093225;28;20391;-52
2023/03/17 10:28:12;;;;;;;4.32;1.80;;;;;;;;;;5092897;28;20066;-54
2023/03/17 10:30:38;;;;;;;3.78;1.80;;;;;;;;;;5069254;28;20500;-51
2023/03/17 10:33:05;;;;;;;4.40;1.92;;;;;;;;;;5093029;28;20135;-56
2023/03/17 10:35:35;;;;;;;3.35;1.88;;;;;;;;;;5092526;28;20476;-53
2023/03/17 10:38:02;;;;;;;4.25;2.25;;;;;;;;;;5092914;28;20438;-53
2023/03/17 10:40:29;;;;;;;2.70;1.80;;;;;;;;;;5092761;28;20020;-53
2023/03/17 10:43:09;;;;;;;4.63;2.10;;;;;;;;;;5107180;28;20023;-54
2023/03/17 10:45:37;;;;;;;3.90;1.80;;;;;;;;;;5107447;28;20035;-51
2023/03/17 10:48:07;;;;;;;2.95;2.10;;;;;;;;;;5112825;28;20063;-54
2023/03/17 10:50:34;;;;;;;2.47;1.58;;;;;;;;;;5101650;28;20522;-51
2023/03/17 10:53:03;;;;;;;4.20;2.42;;;;;;;;;;5091989;28;20090;-54
2023/03/17 10:55:39;;;;;;;2.97;1.70;;;;;;;;;;5092217;28;20030;-58
2023/03/17 10:58:16;;;;;;;2.85;1.90;;;;;;;;;;5092555;28;20062;-53
2023/03/17 11:01:18;;;;;;;3.20;1.73;;;;;;;;;;5091701;28;20034;-51
2023/03/17 11:03:45;;;;;;;4.20;2.05;;;;;;;;;;4998300;28;20018;-55
2023/03/17 11:06:13;;;;;;;2.55;1.65;;;;;;;;;;5071692;28;20127;-52
2023/03/17 11:08:41;;;;;;;2.50;1.60;;;;;;;;;;5092127;28;20031;-53
2023/03/17 11:11:21;;;;;;;4.28;1.88;;;;;;;;;;5092100;28;20070;-52
2023/03/17 11:13:47;;;;;;;3.10;1.63;;;;;;;;;;5092028;28;20039;-55
2023/03/17 11:16:21;;;;;;;2.83;1.70;;;;;;;;;;5092085;28;20054;-54
2023/03/17 11:18:48;;;;;;;3.28;2.00;;;;;;;;;;5091850;28;20035;-54
2023/03/17 11:21:28;;;;;;;3.78;1.88;;;;;;;;;;5097352;28;20027;-54
2023/03/17 11:23:54;;;;;;;5.95;2.03;;;;;;;;;;5096660;28;20032;-54
2023/03/17 11:26:39;;;;;;;3.35;1.55;;;;;;;;;;5108308;28;20065;-51
2023/03/17 11:29:15;;;;;;;3.63;1.83;;;;;;;;;;5097705;28;20028;-53
2023/03/17 11:32:01;;;;;;;2.72;1.67;;;;;;;;;;5103751;28;20411;-55
2023/03/17 11:34:43;;;;;;;2.90;1.73;;;;;;;;;;5094469;28;20030;-54
2023/03/17 11:37:27;;;;;;;3.40;1.88;;;;;;;;;;5098970;28;20074;-60
2023/03/17 11:40:19;;;;;;;3.55;1.73;;;;;;;;;;5104103;28;20434;-58
2023/03/17 11:42:54;;;;;;;3.28;1.63;;;;;;;;;;5091443;28;20082;-54
2023/03/17 11:45:27;;;;;;;3.37;1.77;;;;;;;;;;5106721;28;20034;-50
2023/03/17 11:47:59;;;;;;;3.75;2.05;;;;;;;;;;5112092;27;20299;-54
2023/03/17 11:50:38;;;;;;;3.47;1.90;;;;;;;;;;5112185;28;20016;-52
2023/03/17 11:53:17;;;;;;;2.97;1.52;;;;;;;;;;5108407;28;20057;-50
2023/03/17 11:56:07;;;;;;;2.55;1.85;;;;;;;;;;5088546;28;20444;-51
2023/03/17 11:58:38;;;;;;;2.40;1.60;;;;;;;;;;5091017;28;20039;-55
2023/03/17 12:01:09;;;;;;;3.22;2.15;;;;;;;;;;5091502;28;20028;-51
2023/03/17 12:03:47;;;;;;;3.35;2.17;;;;;;;;;;5090746;28;20020;-51
2023/03/17 12:06:19;;;;;;;4.20;2.25;;;;;;;;;;5091530;28;20395;-51
2023/03/17 12:09:06;;;;;;;3.60;2.08;;;;;;;;;;5091066;28;20020;-61
2023/03/17 12:11:35;;;;;;;2.33;1.50;;;;;;;;;;5090864;28;20073;-51
2023/03/17 12:14:04;;;;;;;3.50;1.58;;;;;;;;;;5091224;28;20044;-55
2023/03/17 12:16:37;;;;;;;6.85;2.47;;;;;;;;;;5109210;28;20028;-53
2023/03/17 12:19:23;;;;;;;5.70;2.08;;;;;;;;;;5111666;27;20031;-57
2023/03/17 12:21:53;;;;;;;5.63;1.67;;;;;;;;;;5102208;27;20454;-55
2023/03/17 12:24:22;;;;;;;3.53;1.98;;;;;;;;;;5091163;28;20028;-65
2023/03/17 12:26:48;;;;;;;3.88;1.92;;;;;;;;;;5090853;28;20032;-65
2023/03/17 12:29:18;;;;;;;4.90;2.00;;;;;;;;;;5095391;28;20476;-61
2023/03/17 12:31:47;;;;;;;4.10;1.80;;;;;;;;;;5111195;28;20403;-61
2023/03/17 12:34:28;;;;;;;3.25;1.65;;;;;;;;;;5104371;28;20035;-59
2023/03/17 12:36:54;;;;;;;2.70;1.80;;;;;;;;;;5089534;28;20493;-64
2023/03/17 12:39:31;;;;;;;2.92;1.65;;;;;;;;;;5089408;28;20016;-59
2023/03/17 12:42:00;;;;;;;5.05;2.40;;;;;;;;;;5088188;28;20039;-59
2023/03/17 12:44:42;;;;;;;4.70;2.30;;;;;;;;;;5090352;28;20103;-60
2023/03/17 12:47:10;;;;;;;3.72;2.15;;;;;;;;;;5091059;28;20039;-61
2023/03/17 12:50:13;;;;;;;4.22;2.30;;;;;;;;;;5088936;28;20048;-61
2023/03/17 12:52:57;;;;;;;4.60;1.98;;;;;;;;;;5025148;28;20624;-60
2023/03/17 12:55:25;;;;;;;4.03;2.10;;;;;;;;;;5085111;28;20040;-61
2023/03/17 12:58:06;;;;;;;3.45;2.00;;;;;;;;;;5089982;28;20029;-61
2023/03/17 13:00:34;;;;;;;4.75;1.98;;;;;;;;;;5090229;28;20502;-60
2023/03/17 13:03:26;;;;;;;5.63;1.92;;;;;;;;;;5090837;28;20023;-61
2023/03/17 13:05:57;;;;;;;5.43;2.40;;;;;;;;;;5088164;28;20055;-61
2023/03/17 13:08:34;;;;;;;3.25;1.73;;;;;;;;;;5086782;28;20621;-61
2023/03/17 13:11:14;;;;;;;3.50;2.20;;;;;;;;;;5088887;28;20032;-61
2023/03/17 13:13:48;;;;;;;3.17;1.50;;;;;;;;;;5089225;28;20040;-60
2023/03/17 13:16:32;;;;;;;5.50;2.20;;;;;;;;;;5096064;28;20096;-61
2023/03/17 13:19:08;;;;;;;4.70;1.85;;;;;;;;;;5094086;28;20408;-61
2023/03/17 13:21:34;;;;;;;3.00;2.00;;;;;;;;;;5092965;28;20414;-61
2023/03/17 13:24:15;;;;;;;4.03;2.10;;;;;;;;;;5093033;28;20492;-61
2023/03/17 13:26:55;;;;;;;4.57;2.13;;;;;;;;;;5091574;28;20028;-61
2023/03/17 13:29:31;;;;;;;2.78;1.80;;;;;;;;;;5091613;28;20024;-61
2023/03/17 13:31:57;;;;;;;;;;;;;;;;;;5093390;28;20036;-61
2023/03/17 13:34:23;;;;;;;3.47;1.92;;;;;;;;;;5092972;28;19965;-61
2023/03/17 13:36:49;;;;;;;3.47;2.25;;;;;;;;;;5092419;28;20032;-62
2023/03/17 13:39:22;;;;;;;3.95;1.98;;;;;;;;;;5092320;28;20544;-61
2023/03/17 13:42:00;;;;;;;5.63;1.92;;;;;;;;;;5090380;28;20032;-61
2023/03/17 13:44:46;;;;;;;2.83;1.88;;;;;;;;;;5090369;28;20060;-60
2023/03/17 13:47:24;;;;;;;4.03;2.17;;;;;;;;;;5092096;28;20059;-63
2023/03/17 13:49:53;;;;;;;4.95;2.20;;;;;;;;;;5090328;28;20028;-62
2023/03/17 13:52:38;;;;;;;3.55;1.95;;;;;;;;;;5093787;28;20040;-61
2023/03/17 13:55:25;;;;;;;5.60;1.95;;;;;;;;;;5093244;28;20361;-61
2023/03/17 13:57:50;;;;;;;;;;;;;;;;;;5093089;28;20032;-61
2023/03/17 14:00:20;;;;;;;3.03;1.80;;;;;;;;;;5093755;28;19911;-61
2023/03/17 14:02:47;;;;;;;2.95;1.85;;;;;;;;;;5106195;28;20035;-61
2023/03/17 14:05:19;;;;;;;4.47;2.25;;;;;;;;;;5099060;27;20107;-62
2023/03/17 14:07:52;;;;;;;2.85;1.83;;;;;;;;;;5091670;28;20024;-62
2023/03/17 14:10:19;;;;;;;4.05;1.90;;;;;;;;;;5091685;28;20487;-61
2023/03/17 14:12:59;;;;;;;3.28;2.00;;;;;;;;;;5091572;28;20036;-62
2023/03/17 14:15:46;;;;;;;3.47;1.90;;;;;;;;;;5090287;28;20085;-61
2023/03/17 14:18:18;;;;;;;5.30;2.25;;;;;;;;;;5091566;28;20375;-62
2023/03/17 14:20:55;;;;;;;5.35;2.33;;;;;;;;;;5093134;28;20065;-61
2023/03/17 14:23:22;;;;;;;4.65;2.03;;;;;;;;;;5093274;28;20024;-61
2023/03/17 14:25:49;;;;;;;3.65;2.00;;;;;;;;;;5092671;28;20158;-61
2023/03/17 14:28:16;;;;;;;5.70;2.33;;;;;;;;;;5093061;28;20024;-62
2023/03/17 14:30:50;;;;;;;7.93;2.30;;;;;;;;;;5092709;28;20028;-61
2023/03/17 14:33:25;;;;;;;4.47;1.95;;;;;;;;;;5093189;28;20036;-61
2023/03/17 14:35:52;;;;;;;4.47;2.13;;;;;;;;;;5092828;28;20485;-62
2023/03/17 14:38:18;;;;;;;4.75;2.00;;;;;;;;;;5097306;28;20062;-63
2023/03/17 14:40:44;;;;;;;3.22;2.10;;;;;;;;;;5112880;28;20027;-61
2023/03/17 14:43:11;;;;;;;5.35;2.28;;;;;;;;;;5113341;28;20030;-62
2023/03/17 14:45:43;;;;;;;3.25;2.00;;;;;;;;;;5113054;28;20020;-62
2023/03/17 14:48:13;;;;;;;11.48;2.20;;;;;;;;;;5112922;28;20080;-62
2023/03/17 14:50:48;;;;;;;4.68;2.00;;;;;;;;;;5112909;28;20070;-61
2023/03/17 14:53:14;;;;;;;3.78;2.05;;;;;;;;;;5113008;27;20059;-62
2023/03/17 14:55:41;;;;;;;4.88;2.20;;;;;;;;;;5112863;28;20032;-61